GMTN

Saniat Rmel Airport

Morocco
METAR GMTN 161100Z 25016KT 9999 FEW023 18/11 Q1027 NOSIG
Observed Flight Rules
Dec-16 @ 11:00 UTC (15 minutes ago) Visual Flight Rules
Wind Visibility Clouds
250° at 16 knots 10,000+ meters
  • Few at 2,300' AGL
Temperatures Readings
Current 18°C / 64°F
Dewpoint 11°C / 52°F
Humidity 64%
Altimeter 30.32" Hg
Pressure 1027 hPa
Elevation 10
METAR GMTN 161100Z 25016KT 9999 FEW023 18/11 Q1027 NOSIG
Observed Flight Rules
Dec-16 @ 11:00 UTC
(15 minutes ago)
VFR
Wind Visibility
250° at 16 knots 10,000+ meters
Clouds
  • Few at 2,300' AGL
Temperature Dewpoint
18°C / 64°F 11°C / 52°F
Humidity Altimeter Pressure
64% 30.32" Hg 1027 hPa